Strona główna
METAR-TAF:

METAR-TAF

Lotnisko :

Port lotniczy Żylina

Żylina, Słowacja

Szerokość geograficzna: 49-14N, Długość geograficzna: 018-36-49E, wysokość: 312 m

Aktualna obserwacja pogody

Raport powstał 24 minut temu, godzina 15:00 UTC
Wiatr 6 kt od zachodnio-południowy zachód, zmienny między południowo-południowy zachód i zachód
Temperatura 29°C
Wilgotność 62%
Ciśnienie 1015 hPa
Widzialność 10 km lub więcej
Mało chmury na wysokości 4400 ft

METAR: LZZI 211500Z 24006KT 200V270 9999 FEW044 29/21 Q1015

czas: 17:24 (15:24 UTC)

Prognoza

Raport powstał 1 godzina i 9 minut temu, godzina 14:15 UTC
Prognoza ważna od 21 godzina 15 UTC do 22 godzina 00 UTC
Wiatr 6 kt od zachodnio-południowy zachód
Widzialność 10 km lub więcej
Mało chmury na wysokości 4300 ft
Prawdopodobieństwo 40% :
Przejściowo
od 21 godzina 17 UTC do 21 godzina 20 UTC
Mało chmury na wysokości 3300 ft, Cumulusy wypiętrznone.
przelotny opad deszczu,

TAF: LZZI 211415Z 2115/2200 24006KT 9999 FEW043 PROB40 TEMPO 2117/2120 SHRA FEW033TCU

Obserwacja i prognoza pogody dla ponad 4000 lotnisk (raport METAR i TAF).

Dostępne stacje oznaczono żółtymi i czerwonymi punktami na mapie.

Najedź kursorem aby zobaczyć nazwę stacji.

Kliknij aby zobaczyć obserwacje i prognozy pogody.

Aby zmienić mapę: kliknij na zielony przycisk z czarnym krzyżykiem, aby powiększyć; na zielony przycisk z myślnikiem, aby pomniejszyć; na zielone strzałki, aby przejść do map sąsiednich.


METAR-TAF: